createdAt,value
2023-01-25T00:00:35.904Z,35.53
2023-01-25T00:04:37.864Z,36.23
2023-01-25T00:08:39.731Z,36.43
2023-01-25T00:12:41.609Z,40.83
2023-01-25T00:16:43.675Z,33.93
2023-01-25T00:20:45.502Z,35.53
2023-01-25T00:24:47.346Z,34.03
2023-01-25T00:28:53.440Z,31.67
2023-01-25T00:33:18.294Z,28.17
2023-01-25T00:37:42.134Z,35.47
2023-01-25T00:41:44.310Z,28.20
2023-01-25T00:45:46.117Z,36.90
2023-01-25T00:49:47.948Z,34.33
2023-01-25T00:53:49.726Z,31.30
2023-01-25T00:57:51.515Z,34.63
2023-01-25T01:01:53.689Z,31.90
2023-01-25T01:06:07.176Z,29.20
2023-01-25T01:10:09.574Z,29.37
2023-01-25T01:14:14.491Z,30.17
2023-01-25T01:18:16.371Z,24.13
2023-01-25T01:22:18.305Z,27.03
2023-01-25T01:26:20.675Z,26.00
2023-01-25T01:30:22.502Z,27.83
2023-01-25T01:34:24.275Z,22.03
2023-01-25T01:38:26.094Z,24.50
2023-01-25T01:42:28.035Z,20.90
2023-01-25T01:46:37.250Z,21.13
2023-01-25T01:50:39.125Z,19.63
2023-01-25T01:55:08.479Z,14.63
2023-01-25T01:59:10.551Z,18.63
2023-01-25T02:08:50.848Z,18.23
2023-01-25T02:12:54.524Z,20.27
2023-01-25T02:16:56.602Z,16.10
2023-01-25T02:21:01.488Z,16.10
2023-01-25T02:25:10.421Z,19.17
2023-01-25T02:29:12.476Z,15.43
2023-01-25T02:33:15.589Z,15.77
2023-01-25T02:37:17.679Z,17.97
2023-01-25T02:41:25.610Z,16.83
2023-01-25T02:45:29.643Z,18.03
2023-01-25T02:49:31.503Z,17.97
2023-01-25T02:53:33.384Z,16.43
2023-01-25T02:57:35.215Z,15.20
2023-01-25T03:01:38.365Z,18.13
2023-01-25T03:05:40.242Z,18.60
2023-01-25T03:09:42.290Z,17.93
2023-01-25T03:13:44.126Z,19.80
2023-01-25T03:17:45.922Z,19.73
2023-01-25T03:21:47.834Z,16.97
2023-01-25T03:25:49.725Z,17.87
2023-01-25T03:29:51.557Z,19.67
2023-01-25T03:34:02.189Z,17.50
2023-01-25T03:38:04.323Z,17.97
2023-01-25T03:42:06.292Z,21.50
2023-01-25T03:46:08.164Z,19.73
2023-01-25T03:50:10.942Z,16.07
2023-01-25T03:54:31.986Z,18.10
2023-01-25T03:58:33.965Z,18.43
2023-01-25T04:02:36.046Z,19.53
2023-01-25T04:06:37.908Z,20.37
2023-01-25T04:10:39.871Z,18.80
2023-01-25T04:14:44.617Z,19.37
2023-01-25T04:18:46.894Z,20.57
2023-01-25T04:22:48.938Z,20.93
2023-01-25T04:26:50.972Z,20.23
2023-01-25T04:30:54.334Z,19.73
2023-01-25T04:34:58.816Z,21.50
2023-01-25T04:39:00.660Z,19.33
2023-01-25T04:43:02.716Z,17.27
2023-01-25T04:47:04.814Z,17.20
2023-01-25T04:51:06.722Z,15.10
2023-01-25T04:55:09.266Z,19.17
2023-01-25T04:59:11.488Z,16.40
2023-01-25T05:03:13.334Z,16.20
2023-01-25T05:07:15.146Z,15.87
2023-01-25T05:11:17.459Z,18.20
2023-01-25T05:15:19.566Z,16.50
2023-01-25T05:19:21.388Z,15.67
2023-01-25T05:23:23.402Z,18.33
2023-01-25T05:27:28.494Z,15.27
2023-01-25T05:31:30.387Z,16.13
2023-01-25T05:35:32.453Z,15.53
2023-01-25T05:39:34.283Z,17.37
2023-01-25T05:43:36.005Z,18.07
2023-01-25T05:47:37.974Z,16.90
2023-01-25T05:51:39.954Z,18.17
2023-01-25T05:55:41.930Z,16.63
2023-01-25T05:59:43.799Z,14.93
2023-01-25T06:03:46.732Z,13.27
2023-01-25T06:07:52.998Z,15.83
2023-01-25T06:11:55.073Z,19.27
2023-01-25T06:15:57.238Z,16.97
2023-01-25T06:19:59.092Z,18.20
2023-01-25T06:24:01.044Z,19.17
2023-01-25T06:28:02.874Z,16.80
2023-01-25T06:32:06.111Z,18.97
2023-01-25T06:36:18.972Z,18.00
2023-01-25T06:40:20.862Z,17.60
2023-01-25T06:44:22.635Z,14.97
2023-01-25T06:48:24.671Z,17.10
2023-01-25T06:52:26.493Z,16.53
2023-01-25T06:56:28.551Z,16.53
2023-01-25T07:00:30.450Z,17.67
2023-01-25T07:04:34.745Z,16.53
2023-01-25T07:08:36.837Z,16.43
2023-01-25T07:12:38.882Z,15.57
2023-01-25T07:16:40.707Z,17.03
2023-01-25T07:20:42.721Z,15.70
2023-01-25T07:24:49.972Z,14.73
2023-01-25T07:28:52.635Z,13.77
2023-01-25T07:32:55.650Z,18.13
2023-01-25T07:36:57.493Z,13.80
2023-01-25T07:40:59.304Z,14.20
2023-01-25T07:45:02.184Z,14.87
2023-01-25T07:49:03.998Z,15.63
2023-01-25T07:53:05.992Z,15.80
2023-01-25T07:57:07.787Z,14.63
2023-01-25T08:01:20.465Z,15.33
2023-01-25T08:05:22.414Z,15.37
2023-01-25T08:09:24.272Z,14.50
2023-01-25T08:13:26.104Z,15.53
2023-01-25T08:17:31.685Z,18.10
2023-01-25T08:21:34.711Z,15.87
2023-01-25T08:25:36.820Z,18.13
2023-01-25T08:29:38.750Z,17.60
2023-01-25T08:33:40.657Z,16.53
2023-01-25T08:37:42.547Z,17.87
2023-01-25T08:41:45.647Z,16.10
2023-01-25T08:45:55.741Z,15.17
2023-01-25T08:49:57.541Z,16.57
2023-01-25T08:54:07.173Z,14.53
2023-01-25T08:58:13.731Z,16.67
2023-01-25T09:02:15.674Z,14.80
2023-01-25T09:06:18.117Z,14.63
2023-01-25T09:10:19.985Z,13.53
2023-01-25T09:14:22.339Z,13.77
2023-01-25T09:18:24.171Z,16.17
2023-01-25T09:22:25.942Z,14.47
2023-01-25T09:26:27.814Z,14.60
2023-01-25T09:30:44.763Z,13.33
2023-01-25T09:34:47.897Z,14.33
2023-01-25T09:38:49.786Z,12.20
2023-01-25T09:43:25.322Z,14.00
2023-01-25T09:47:39.784Z,14.30
2023-01-25T09:52:00.879Z,12.47
2023-01-25T09:56:17.281Z,14.40
2023-01-25T10:00:24.662Z,14.33
2023-01-25T10:04:39.528Z,12.57
2023-01-25T10:09:05.780Z,13.47
2023-01-25T10:13:13.326Z,14.13
2023-01-25T10:17:35.580Z,12.93
2023-01-25T10:21:57.387Z,14.13
2023-01-25T10:26:10.492Z,10.20
2023-01-25T10:30:38.753Z,10.17
2023-01-25T10:34:56.451Z,12.80
2023-01-25T10:39:10.552Z,11.80
2023-01-25T10:43:20.843Z,10.37
2023-01-25T10:47:31.000Z,12.27
2023-01-25T10:51:37.882Z,12.10
2023-01-25T10:55:42.027Z,10.83
2023-01-25T10:59:50.114Z,10.70
2023-01-25T11:03:52.125Z,11.07
2023-01-25T11:07:54.137Z,9.73
2023-01-25T11:12:13.977Z,9.53
2023-01-25T11:16:32.013Z,9.50
2023-01-25T11:20:33.968Z,8.17
2023-01-25T11:24:36.236Z,8.83
2023-01-25T11:28:38.136Z,9.13
2023-01-25T11:32:40.453Z,8.93
2023-01-25T11:37:23.055Z,9.47
2023-01-25T11:41:46.389Z,10.33
2023-01-25T11:46:13.532Z,9.17
2023-01-25T11:50:30.293Z,9.53
2023-01-25T11:55:00.071Z,14.10
2023-01-25T12:00:03.721Z,10.37
2023-01-25T12:04:45.462Z,10.33
2023-01-25T12:08:57.723Z,9.77
2023-01-25T12:13:17.662Z,9.17
2023-01-25T12:17:50.094Z,8.73
2023-01-25T12:22:22.650Z,12.47
2023-01-25T12:26:50.024Z,10.83
2023-01-25T12:31:23.080Z,9.50
2023-01-25T12:35:43.942Z,10.67
2023-01-25T12:39:50.882Z,10.27
2023-01-25T12:44:08.980Z,13.07
2023-01-25T12:48:21.465Z,11.87
2023-01-25T12:52:33.525Z,9.73
2023-01-25T12:56:45.616Z,11.70
2023-01-25T13:01:01.248Z,11.00
2023-01-25T13:05:44.697Z,11.50
2023-01-25T13:10:03.586Z,11.10
2023-01-25T13:14:18.038Z,10.63
2023-01-25T13:18:29.168Z,10.77
2023-01-25T13:22:43.220Z,13.67
2023-01-25T13:27:12.711Z,12.23
2023-01-25T13:31:51.117Z,11.80
2023-01-25T13:35:54.127Z,9.87
2023-01-25T13:39:57.505Z,12.27
2023-01-25T13:44:23.189Z,11.63
2023-01-25T13:48:25.927Z,11.93
2023-01-25T13:52:29.317Z,12.67
2023-01-25T13:56:34.867Z,11.57
2023-01-25T14:00:36.889Z,12.90
2023-01-25T14:04:38.699Z,13.23
2023-01-25T14:08:40.719Z,13.43
2023-01-25T14:12:43.337Z,16.97
2023-01-25T14:16:45.296Z,13.97
2023-01-25T14:20:53.499Z,14.37
2023-01-25T14:25:18.954Z,13.67
2023-01-25T14:29:32.624Z,13.97
2023-01-25T14:33:41.207Z,12.73
2023-01-25T14:37:43.366Z,13.00
2023-01-25T14:42:00.117Z,12.97
2023-01-25T14:46:23.926Z,13.77
2023-01-25T14:50:39.391Z,14.77
2023-01-25T14:54:55.867Z,14.03
2023-01-25T14:59:00.105Z,14.83
2023-01-25T15:03:05.363Z,15.10
2023-01-25T15:07:17.710Z,13.83
2023-01-25T15:11:58.331Z,15.37
2023-01-25T15:16:02.380Z,19.20
2023-01-25T15:20:08.607Z,15.97
2023-01-25T15:24:13.779Z,17.07
2023-01-25T15:28:16.904Z,16.77
2023-01-25T15:32:20.972Z,16.07
2023-01-25T15:36:24.807Z,16.07
2023-01-25T15:40:26.689Z,16.47
2023-01-25T15:44:28.636Z,18.30
2023-01-25T15:53:40.496Z,13.77
2023-01-25T15:58:19.587Z,15.47
2023-01-25T16:07:59.597Z,18.03
2023-01-25T16:19:19.891Z,14.23
2023-01-25T17:02:08.175Z,20.30
2023-01-25T17:06:27.369Z,18.67
2023-01-25T17:10:33.641Z,16.93
2023-01-25T17:14:38.302Z,22.20
2023-01-25T17:18:46.447Z,21.47
2023-01-25T17:22:51.232Z,22.83
2023-01-25T17:27:01.798Z,21.37
2023-01-25T17:31:04.883Z,20.70
2023-01-25T17:35:07.416Z,20.03
2023-01-25T17:39:10.392Z,21.40
2023-01-25T17:43:12.275Z,21.47
2023-01-25T17:47:14.303Z,21.63
2023-01-25T17:51:16.291Z,21.23
2023-01-25T17:55:18.422Z,19.17
2023-01-25T17:59:20.676Z,16.40
2023-01-25T18:03:36.445Z,18.47
2023-01-25T18:07:41.726Z,20.60
2023-01-25T18:11:46.974Z,20.23
2023-01-25T18:15:58.815Z,22.20
2023-01-25T18:20:08.598Z,22.87
2023-01-25T18:24:42.766Z,23.77
2023-01-25T18:28:48.119Z,27.20
2023-01-25T18:32:50.098Z,22.77
2023-01-25T18:37:01.418Z,23.50
2023-01-25T18:41:17.831Z,24.70
2023-01-25T18:45:21.008Z,26.70
2023-01-25T18:49:28.489Z,30.53
2023-01-25T18:53:32.269Z,29.07
2023-01-25T18:57:34.593Z,28.97
2023-01-25T19:01:41.706Z,32.17
2023-01-25T19:05:46.476Z,28.23
2023-01-25T19:09:48.706Z,26.27
2023-01-25T19:13:50.844Z,30.67
2023-01-25T19:17:52.905Z,31.63
2023-01-25T19:21:54.758Z,30.60
2023-01-25T19:26:06.582Z,30.10
2023-01-25T19:30:20.070Z,28.03
2023-01-25T19:34:24.932Z,29.47
2023-01-25T19:38:27.024Z,31.80
2023-01-25T19:42:34.432Z,31.17
2023-01-25T19:46:39.252Z,31.27
2023-01-25T19:50:43.682Z,31.73
2023-01-25T19:55:05.118Z,34.73
2023-01-25T19:59:10.810Z,34.83
2023-01-25T20:03:16.662Z,31.60
2023-01-25T20:07:22.384Z,31.73
2023-01-25T20:11:29.092Z,30.53
2023-01-25T20:15:32.629Z,34.23
2023-01-25T20:19:37.264Z,34.83
2023-01-25T20:23:45.402Z,33.60
2023-01-25T20:27:47.485Z,33.67
2023-01-25T20:31:53.169Z,31.10
2023-01-25T20:36:11.157Z,33.60
2023-01-25T20:40:13.477Z,33.57
2023-01-25T20:44:21.117Z,30.47
2023-01-25T20:48:38.242Z,32.40
2023-01-25T20:52:53.710Z,33.27
2023-01-25T20:56:55.744Z,32.83
2023-01-25T21:00:57.700Z,32.23
2023-01-25T21:04:59.843Z,31.03
2023-01-25T21:09:08.123Z,36.53
2023-01-25T21:13:13.340Z,32.13
2023-01-25T21:17:32.750Z,30.93
2023-01-25T21:21:44.825Z,29.27
2023-01-25T21:26:09.982Z,29.50
2023-01-25T21:30:26.312Z,28.60
2023-01-25T21:34:28.722Z,33.47
2023-01-25T21:39:09.530Z,29.60
2023-01-25T21:43:13.609Z,29.60
2023-01-25T21:47:29.861Z,30.77
2023-01-25T21:51:37.606Z,29.17
2023-01-25T21:55:39.789Z,28.43
2023-01-25T21:59:44.069Z,26.60
2023-01-25T22:03:50.571Z,27.93
2023-01-25T22:07:52.461Z,28.47
2023-01-25T22:11:54.819Z,24.80
2023-01-25T22:16:03.260Z,28.50
2023-01-25T22:20:05.861Z,30.07
2023-01-25T22:24:09.518Z,27.30
2023-01-25T22:28:11.430Z,28.13
2023-01-25T22:32:13.453Z,31.10
2023-01-25T22:36:16.437Z,30.30
2023-01-25T22:40:18.483Z,28.37
2023-01-25T22:44:20.444Z,32.63
2023-01-25T22:48:22.350Z,31.73
2023-01-25T22:52:24.347Z,34.07
2023-01-25T22:56:34.026Z,33.23
2023-01-25T23:00:37.497Z,37.53
2023-01-25T23:04:39.396Z,37.37
2023-01-25T23:08:41.448Z,39.47
2023-01-25T23:12:43.456Z,33.83
2023-01-25T23:16:45.404Z,37.23
2023-01-25T23:20:50.240Z,36.10
2023-01-25T23:24:52.182Z,32.43
2023-01-25T23:28:56.847Z,39.43
2023-01-25T23:33:01.157Z,37.10
2023-01-25T23:37:03.841Z,33.97
2023-01-25T23:41:06.103Z,34.90
2023-01-25T23:45:09.923Z,34.87
2023-01-25T23:49:12.063Z,36.63
2023-01-25T23:53:14.265Z,36.00
2023-01-25T23:57:18.417Z,37.80
